Terminal Aerodrome Forecast
Issued by NWS Charleston, WV

Current Version | Previous Version | Text Only | Print | Product List | Glossary Off
Versions: 1 2 3 4 5 6 7 8 9 10 11 12 13 14 15 16 17 18 19 20 21 22 23 24 25 26 27 28 29 30 31 32

791
FTUS41 KRLX 051428 AAA
TAFBKW
TAF AMD
KBKW 051428Z 0514/0612 31009KT P6SM SCT008 OVC018
      TEMPO 0515/0516 BKN008
     FM051600 32008KT P6SM OVC015
     FM051900 35006KT P6SM BKN035
     FM052100 VRB03KT P6SM SCT035
     FM060800 14012G20KT P6SM OVC025
     FM060900 13014G23KT 6SM -RA OVC025
     FM061100 13014G23KT 4SM -RA OVC025=

USA.gov is the U.S. government's official web portal to all federal, state and local government web resources and services.